Time;durP1;ratioP1;P1;durP2;ratioP2;P2;SDS_P1;SDS_P2;PMS_P1;PMS_P2;Temp;Humidity;BMP_temperature;BMP_pressure;BME280_temperature;BME280_humidity;BME280_pressure;Samples;Min_cycle;Max_cycle;Signal;HPM_P1;HPM_P2
2022/08/04 00:01:01;;;;;;;6.25;3.20;;;22.80;95.60;;;;;;4994079;28;20432;-75
2022/08/04 00:03:32;;;;;;;4.07;3.15;;;22.80;95.40;;;;;;4994387;28;20567;-75
2022/08/04 00:06:15;;;;;;;3.35;3.08;;;22.70;95.50;;;;;;4994373;28;20081;-77
2022/08/04 00:09:40;;;;;;;3.72;3.13;;;22.50;95.90;;;;;;4992970;28;20033;-74
2022/08/04 00:12:07;;;;;;;5.85;3.20;;;22.60;95.70;;;;;;4980346;28;20038;-74
2022/08/04 00:14:40;;;;;;;5.78;2.70;;;22.70;95.70;;;;;;4994129;28;20033;-76
2022/08/04 00:17:07;;;;;;;3.35;2.90;;;22.50;95.80;;;;;;4994017;28;20391;-75
2022/08/04 00:19:39;;;;;;;3.60;2.88;;;22.50;95.90;;;;;;4992753;28;20248;-74
2022/08/04 00:22:08;;;;;;;5.45;2.65;;;22.50;95.70;;;;;;4992591;28;20022;-75
2022/08/04 00:24:35;;;;;;;3.65;2.55;;;22.60;96.00;;;;;;4993891;28;20030;-75
2022/08/04 00:27:02;;;;;;;10.52;3.20;;;22.60;96.30;;;;;;4993972;28;20106;-75
2022/08/04 00:29:28;;;;;;;4.25;2.78;;;22.30;95.90;;;;;;4993919;28;20019;-75
2022/08/04 00:31:56;;;;;;;4.38;2.92;;;22.60;96.20;;;;;;4992411;28;20077;-75
2022/08/04 00:34:27;;;;;;;3.92;2.58;;;22.60;96.00;;;;;;4993400;28;20029;-75
2022/08/04 00:36:54;;;;;;;3.17;2.88;;;22.60;95.80;;;;;;5001896;28;20499;-75
2022/08/04 00:39:20;;;;;;;4.28;2.60;;;22.70;95.70;;;;;;5013225;28;20025;-75
2022/08/04 00:41:56;;;;;;;5.38;2.80;;;22.80;95.70;;;;;;5005404;28;20034;-75
2022/08/04 00:44:46;;;;;;;3.45;2.42;;;22.80;95.70;;;;;;4993599;28;20077;-76
2022/08/04 00:47:36;;;;;;;3.53;2.85;;;22.80;95.90;;;;;;4993370;28;20037;-76
2022/08/04 00:50:05;;;;;;;5.90;2.67;;;22.80;95.90;;;;;;4993534;28;20031;-75
2022/08/04 00:52:46;;;;;;;3.20;2.42;;;22.60;96.30;;;;;;4991919;28;20033;-74
2022/08/04 00:55:46;;;;;;;3.53;2.50;;;22.60;96.70;;;;;;4993362;28;20027;-75
2022/08/04 00:58:51;;;;;;;3.58;2.80;;;22.30;97.40;;;;;;4993284;28;20030;-75
2022/08/04 01:01:28;;;;;;;3.97;2.75;;;22.00;98.00;;;;;;4993485;28;20064;-75
2022/08/04 01:04:28;;;;;;;3.45;2.58;;;21.90;98.40;;;;;;4992082;28;20558;-74
2022/08/04 01:07:13;;;;;;;2.95;2.65;;;22.00;98.40;;;;;;4984688;28;20081;-74
2022/08/04 01:10:02;;;;;;;2.80;2.60;;;21.90;98.80;;;;;;4993120;28;20022;-74
2022/08/04 01:13:01;;;;;;;3.90;2.53;;;21.80;98.90;;;;;;4992994;28;20284;-74
2022/08/04 01:15:39;;;;;;;2.70;2.50;;;21.80;99.20;;;;;;4992948;28;20022;-75
2022/08/04 01:18:06;;;;;;;4.75;2.60;;;21.70;99.70;;;;;;4992831;28;20025;-75
2022/08/04 01:20:39;;;;;;;3.05;2.42;;;21.50;99.90;;;;;;4992766;28;20057;-74
2022/08/04 01:23:26;;;;;;;3.42;2.40;;;21.50;99.90;;;;;;4992879;28;20031;-75
2022/08/04 01:26:10;;;;;;;2.83;2.47;;;21.40;99.90;;;;;;4992789;28;20080;-76
2022/08/04 01:29:04;;;;;;;3.33;2.53;;;21.40;99.90;;;;;;4991593;28;20514;-76
2022/08/04 01:31:35;;;;;;;2.88;2.60;;;21.40;99.90;;;;;;4988704;28;20026;-76
2022/08/04 01:34:05;;;;;;;4.32;2.40;;;21.40;99.90;;;;;;4991624;28;20022;-76
2022/08/04 01:36:36;;;;;;;3.13;2.25;;;21.30;99.90;;;;;;4997759;28;20056;-76
2022/08/04 01:39:48;;;;;;;3.92;2.45;;;21.40;99.90;;;;;;5011073;28;20116;-77
2022/08/04 01:41:54;;;;;;;3.17;2.40;;;21.20;99.90;;;;;;4991995;28;20427;-77
2022/08/04 01:44:22;;;;;;;3.70;2.17;;;21.20;99.90;;;;;;4988805;28;20058;-75
2022/08/04 01:46:49;;;;;;;3.78;2.38;;;21.10;99.90;;;;;;4992542;28;20514;-76
2022/08/04 01:49:18;;;;;;;3.95;2.20;;;21.50;99.90;;;;;;4991062;28;20117;-76
2022/08/04 01:51:45;;;;;;;2.58;2.10;;;21.30;99.90;;;;;;4989031;28;20054;-76
2022/08/04 01:54:14;;;;;;;2.58;2.38;;;21.10;99.90;;;;;;5007721;28;20025;-76
2022/08/04 01:56:42;;;;;;;3.05;2.15;;;20.80;99.90;;;;;;5002114;28;20516;-77
2022/08/04 01:59:08;;;;;;;4.13;2.30;;;20.70;99.90;;;;;;4990626;28;20026;-77
2022/08/04 02:01:35;;;;;;;3.85;2.58;;;21.20;99.90;;;;;;4996433;28;20030;-77
2022/08/04 02:04:01;;;;;;;3.95;2.53;;;20.90;99.90;;;;;;4992663;28;20129;-75
2022/08/04 02:06:55;;;;;;;2.67;2.47;;;20.70;99.90;;;;;;4992305;28;20230;-75
2022/08/04 02:09:46;;;;;;;4.22;2.72;;;20.70;99.90;;;;;;4992498;28;20053;-76
2022/08/04 02:12:38;;;;;;;2.78;2.50;;;20.50;99.90;;;;;;4992220;28;20033;-77
2022/08/04 02:15:22;;;;;;;3.08;2.47;;;20.70;99.90;;;;;;4992268;28;20028;-77
2022/08/04 02:18:11;;;;;;;2.72;2.10;;;20.80;99.90;;;;;;5001666;28;20021;-76
2022/08/04 02:20:42;;;;;;;4.00;2.40;;;20.80;99.90;;;;;;4980124;28;20030;-75
2022/08/04 02:23:13;;;;;;;2.65;2.45;;;20.80;99.90;;;;;;4992905;28;20105;-76
2022/08/04 02:25:45;;;;;;;3.53;2.25;;;20.80;99.90;;;;;;5005895;28;20053;-76
2022/08/04 02:28:15;;;;;;;2.55;2.28;;;20.90;99.90;;;;;;4994785;28;20033;-77
2022/08/04 02:30:52;;;;;;;3.25;2.50;;;20.80;99.90;;;;;;4992066;28;20030;-76
2022/08/04 02:33:23;;;;;;;4.75;3.10;;;21.20;99.90;;;;;;4992289;28;20023;-76
2022/08/04 02:35:55;;;;;;;2.95;2.70;;;20.80;99.90;;;;;;4991989;28;20042;-75
2022/08/04 02:38:33;;;;;;;3.25;2.80;;;21.00;99.90;;;;;;4979844;28;20584;-75
2022/08/04 02:41:00;;;;;;;4.30;2.83;;;20.50;99.90;;;;;;4991108;28;20029;-75
2022/08/04 02:43:28;;;;;;;3.08;2.85;;;20.80;99.90;;;;;;5000853;28;20510;-75
2022/08/04 02:45:59;;;;;;;4.75;3.00;;;20.90;99.90;;;;;;5011611;28;20033;-76
2022/08/04 02:48:27;;;;;;;3.40;2.97;;;20.90;99.90;;;;;;5002096;28;20383;-76
2022/08/04 02:50:54;;;;;;;4.63;2.97;;;20.90;99.90;;;;;;5003581;28;20030;-76
2022/08/04 02:53:21;;;;;;;3.03;2.53;;;20.70;99.90;;;;;;4990628;28;20018;-74
2022/08/04 02:55:51;;;;;;;3.28;2.70;;;20.70;99.90;;;;;;5001349;28;20018;-75
2022/08/04 02:58:19;;;;;;;4.45;3.30;;;20.80;99.90;;;;;;5000257;28;20105;-76
2022/08/04 03:00:45;;;;;;;6.32;2.80;;;20.80;99.90;;;;;;4996603;28;20030;-77
2022/08/04 03:03:23;;;;;;;3.75;2.90;;;20.60;99.90;;;;;;5010640;28;20033;-75
2022/08/04 03:06:09;;;;;;;4.40;3.03;;;20.70;99.90;;;;;;4992256;28;20438;-75
2022/08/04 03:08:53;;;;;;;3.35;3.05;;;20.70;99.90;;;;;;5007143;28;20026;-75
2022/08/04 03:11:55;;;;;;;3.45;2.83;;;20.60;99.90;;;;;;5003634;28;20034;-73
2022/08/04 03:14:39;;;;;;;4.45;3.33;;;20.60;99.90;;;;;;4994209;28;20029;-74
2022/08/04 03:17:39;;;;;;;4.15;3.05;;;20.70;99.90;;;;;;4995543;28;20107;-74
2022/08/04 03:20:33;;;;;;;3.13;2.80;;;20.80;99.90;;;;;;4995286;28;20018;-74
2022/08/04 03:23:12;;;;;;;5.47;3.05;;;20.80;99.90;;;;;;4993795;28;20033;-74
2022/08/04 03:25:53;;;;;;;3.47;2.90;;;20.70;99.90;;;;;;4985437;28;20027;-75
2022/08/04 03:28:41;;;;;;;3.70;2.95;;;20.50;99.90;;;;;;5009614;28;20037;-75
2022/08/04 03:31:44;;;;;;;4.00;2.95;;;20.20;99.90;;;;;;5013138;28;20464;-75
2022/08/04 03:34:53;;;;;;;3.13;2.80;;;20.30;99.90;;;;;;5014519;28;20033;-75
2022/08/04 03:37:21;;;;;;;3.40;3.00;;;20.30;99.90;;;;;;4987023;28;20113;-75
2022/08/04 03:40:05;;;;;;;3.20;2.90;;;20.20;99.90;;;;;;4994956;28;20025;-75
2022/08/04 03:42:57;;;;;;;3.38;2.88;;;20.30;99.90;;;;;;4993402;28;20488;-77
2022/08/04 03:45:44;;;;;;;4.35;2.78;;;20.20;99.90;;;;;;4987030;28;20037;-76
2022/08/04 03:48:33;;;;;;;3.70;3.08;;;20.30;99.90;;;;;;4984397;28;20031;-78
2022/08/04 03:55:03;;;;;;;5.07;2.80;;;20.20;99.90;;;;;;4994795;28;20487;-74
2022/08/04 03:57:46;;;;;;;4.25;2.92;;;19.90;99.90;;;;;;4993422;28;20054;-75
2022/08/04 04:00:16;;;;;;;4.85;2.70;;;19.90;99.90;;;;;;5006359;28;20341;-73
2022/08/04 04:02:57;;;;;;;3.47;2.83;;;20.10;99.90;;;;;;5013961;28;20060;-74
2022/08/04 04:06:04;;;;;;;3.67;2.90;;;20.10;99.90;;;;;;5011125;28;20068;-76
2022/08/04 04:09:01;;;;;;;4.32;2.97;;;20.30;99.90;;;;;;4993882;28;20039;-74
2022/08/04 04:12:05;;;;;;;3.45;2.72;;;20.40;99.90;;;;;;4994118;28;20042;-75
2022/08/04 04:14:56;;;;;;;3.15;2.85;;;20.30;99.90;;;;;;4994268;28;20022;-75
2022/08/04 04:17:43;;;;;;;4.47;3.00;;;20.20;99.90;;;;;;4991257;28;20054;-75
2022/08/04 04:20:29;;;;;;;4.45;2.80;;;20.30;99.90;;;;;;4996006;28;20022;-74
2022/08/04 04:23:13;;;;;;;3.67;3.13;;;20.20;99.90;;;;;;4959393;28;20162;-74
2022/08/04 04:25:57;;;;;;;5.30;3.30;;;20.20;99.90;;;;;;4991748;28;20019;-74
2022/08/04 04:28:47;;;;;;;5.22;3.40;;;20.10;99.90;;;;;;5000171;28;20384;-74
2022/08/04 04:31:50;;;;;;;3.33;3.00;;;20.20;99.90;;;;;;4989132;28;20121;-74
2022/08/04 04:34:41;;;;;;;3.35;2.72;;;20.40;99.90;;;;;;4988905;28;20105;-76
2022/08/04 04:37:19;;;;;;;4.20;2.92;;;20.60;99.90;;;;;;4984787;28;20051;-74
2022/08/04 04:40:03;;;;;;;3.58;2.83;;;20.70;99.90;;;;;;5005106;28;20023;-73
2022/08/04 04:42:47;;;;;;;3.08;2.75;;;20.60;99.90;;;;;;4990504;28;20029;-74
2022/08/04 04:45:33;;;;;;;3.95;2.97;;;20.70;99.90;;;;;;4993514;28;20503;-74
2022/08/04 04:48:13;;;;;;;3.75;2.60;;;20.80;99.90;;;;;;4993598;28;20157;-75
2022/08/04 04:50:42;;;;;;;5.03;2.70;;;20.70;99.90;;;;;;4993231;28;20069;-74
2022/08/04 04:53:34;;;;;;;2.70;2.50;;;20.70;99.90;;;;;;4993638;28;20116;-75
2022/08/04 04:56:10;;;;;;;8.70;6.95;;;20.70;99.90;;;;;;4993560;28;20480;-75
2022/08/04 04:58:38;;;;;;;7.05;3.60;;;20.60;99.90;;;;;;4993009;28;20476;-75
2022/08/04 05:01:14;;;;;;;3.95;3.30;;;20.70;99.90;;;;;;5005712;28;20030;-73
2022/08/04 05:04:31;;;;;;;3.20;2.80;;;20.80;99.90;;;;;;5006641;28;20030;-74
2022/08/04 05:07:00;;;;;;;3.28;2.80;;;21.10;99.90;;;;;;5001963;28;20037;-74
2022/08/04 05:09:55;;;;;;;6.70;3.28;;;21.10;99.90;;;;;;4993320;28;20072;-74
2022/08/04 05:12:29;;;;;;;4.35;2.95;;;21.20;99.90;;;;;;4976312;28;20050;-73
2022/08/04 05:14:58;;;;;;;3.35;2.75;;;21.30;99.90;;;;;;4999567;28;20030;-73
2022/08/04 05:17:35;;;;;;;4.03;3.03;;;21.30;99.90;;;;;;5004373;28;20037;-75
2022/08/04 05:20:07;;;;;;;3.90;2.85;;;21.30;99.90;;;;;;4993125;28;20027;-75
2022/08/04 05:22:47;;;;;;;3.50;3.05;;;21.30;99.90;;;;;;4992926;28;20109;-75
2022/08/04 05:25:33;;;;;;;3.28;2.60;;;21.50;99.90;;;;;;4993019;28;20033;-75
2022/08/04 05:28:25;;;;;;;2.50;2.30;;;21.60;99.90;;;;;;5008256;28;20022;-75
2022/08/04 05:31:05;;;;;;;4.60;2.60;;;21.80;99.90;;;;;;4995746;28;20096;-75
2022/08/04 05:33:37;;;;;;;4.05;2.50;;;21.80;99.90;;;;;;4985348;28;20030;-75
2022/08/04 05:36:06;;;;;;;3.90;2.30;;;22.00;99.90;;;;;;4992799;28;20116;-74
2022/08/04 05:38:39;;;;;;;2.10;1.90;;;22.00;99.90;;;;;;5007469;28;20022;-75
2022/08/04 05:41:07;;;;;;;3.75;2.30;;;22.00;99.90;;;;;;4998174;28;20023;-75
2022/08/04 05:43:35;;;;;;;3.40;2.78;;;22.10;99.90;;;;;;5008259;28;20472;-75
2022/08/04 05:46:01;;;;;;;3.53;2.10;;;22.10;99.90;;;;;;4995912;28;20034;-75
2022/08/04 05:48:28;;;;;;;6.75;2.30;;;22.30;99.90;;;;;;4992812;28;20109;-75
2022/08/04 05:50:55;;;;;;;4.57;2.70;;;22.50;99.90;;;;;;4996935;28;20397;-75
2022/08/04 05:53:22;;;;;;;2.90;2.58;;;22.50;99.90;;;;;;4992509;28;20019;-75
2022/08/04 05:55:49;;;;;;;4.13;2.80;;;22.70;99.90;;;;;;4991137;28;20129;-76
2022/08/04 05:58:16;;;;;;;3.10;2.80;;;22.80;99.90;;;;;;4992606;28;20022;-76
2022/08/04 06:00:43;;;;;;;5.88;3.20;;;23.00;99.90;;;;;;4992477;28;20022;-75
2022/08/04 06:03:10;;;;;;;2.95;2.55;;;23.10;99.90;;;;;;4992695;28;20026;-75
2022/08/04 06:05:37;;;;;;;2.92;2.60;;;23.20;99.90;;;;;;5009463;28;20017;-75
2022/08/04 06:08:03;;;;;;;3.22;2.92;;;23.30;99.90;;;;;;5001352;28;20023;-75
2022/08/04 06:10:33;;;;;;;6.32;2.83;;;23.40;99.90;;;;;;5005468;28;20093;-75
2022/08/04 06:13:05;;;;;;;5.15;3.10;;;23.40;99.90;;;;;;4992555;28;20030;-75
2022/08/04 06:15:36;;;;;;;4.05;2.80;;;23.40;99.90;;;;;;4997156;28;20026;-74
2022/08/04 06:18:03;;;;;;;6.15;2.90;;;23.60;99.90;;;;;;5011904;28;20022;-75
2022/08/04 06:20:32;;;;;;;2.92;2.50;;;23.60;99.90;;;;;;4998471;28;20105;-75
2022/08/04 06:23:03;;;;;;;2.88;2.33;;;23.80;99.90;;;;;;4999597;28;20047;-75
2022/08/04 06:25:31;;;;;;;3.28;2.78;;;23.90;99.90;;;;;;4977941;28;20043;-75
2022/08/04 06:27:58;;;;;;;3.03;2.47;;;23.90;99.90;;;;;;4992399;28;20041;-73
2022/08/04 06:30:29;;;;;;;4.45;2.50;;;24.00;99.90;;;;;;5004877;28;20026;-73
2022/08/04 06:32:56;;;;;;;4.00;2.60;;;24.20;99.90;;;;;;4992860;28;20383;-76
2022/08/04 06:35:24;;;;;;;3.00;2.40;;;24.30;99.90;;;;;;5000971;28;20034;-74
2022/08/04 06:37:52;;;;;;;3.88;2.45;;;24.50;99.90;;;;;;5003851;28;20023;-73
2022/08/04 06:40:20;;;;;;;3.03;2.63;;;24.70;99.90;;;;;;4991835;28;20030;-74
2022/08/04 06:42:47;;;;;;;3.28;2.33;;;24.90;99.90;;;;;;4992076;28;20018;-74
2022/08/04 06:45:14;;;;;;;3.70;2.58;;;24.80;99.90;;;;;;4994294;28;20030;-73
2022/08/04 06:47:42;;;;;;;4.85;2.50;;;24.90;99.90;;;;;;4995892;28;20519;-74
2022/08/04 06:50:10;;;;;;;3.42;2.67;;;24.90;99.90;;;;;;4996042;28;20524;-77
2022/08/04 06:52:36;;;;;;;4.57;2.75;;;24.90;99.90;;;;;;5009019;28;20507;-73
2022/08/04 06:55:02;;;;;;;2.60;2.40;;;25.00;99.90;;;;;;5006116;28;20033;-73
2022/08/04 06:57:30;;;;;;;2.95;2.65;;;25.10;99.90;;;;;;5002218;28;20049;-75
2022/08/04 07:00:09;;;;;;;8.27;3.03;;;25.20;99.90;;;;;;5015378;28;20026;-75
2022/08/04 07:02:44;;;;;;;5.20;3.10;;;25.30;99.90;;;;;;4982742;28;20153;-74
2022/08/04 07:05:10;;;;;;;3.67;2.65;;;25.50;99.90;;;;;;4995919;28;20030;-74
2022/08/04 07:07:36;;;;;;;4.65;2.50;;;25.70;99.90;;;;;;4994543;28;20034;-74
2022/08/04 07:10:03;;;;;;;4.15;2.47;;;25.70;99.90;;;;;;5008837;28;20026;-74
2022/08/04 07:12:30;;;;;;;2.85;2.50;;;25.90;99.90;;;;;;4995557;28;20030;-74
2022/08/04 07:14:57;;;;;;;2.97;2.38;;;26.00;99.90;;;;;;4995663;28;20022;-74
2022/08/04 07:17:24;;;;;;;3.35;2.60;;;26.10;99.90;;;;;;4995633;28;20015;-74
2022/08/04 07:19:51;;;;;;;5.50;2.67;;;26.20;99.90;;;;;;4995512;28;20109;-77
2022/08/04 07:22:17;;;;;;;3.58;2.33;;;26.30;99.90;;;;;;4995224;28;20073;-76
2022/08/04 07:24:44;;;;;;;3.88;2.40;;;26.50;99.90;;;;;;4995017;28;20034;-76
2022/08/04 07:27:09;;;;;;;4.43;2.55;;;26.70;99.90;;;;;;4995205;28;20034;-76
2022/08/04 07:29:36;;;;;;;2.80;2.22;;;26.70;99.90;;;;;;4997061;28;20060;-75
2022/08/04 07:32:03;;;;;;;2.67;2.33;;;26.90;99.90;;;;;;5004964;28;20130;-74
2022/08/04 07:34:29;;;;;;;2.45;2.20;;;27.10;99.40;;;;;;4994630;28;20034;-75
2022/08/04 07:36:57;;;;;;;3.60;2.17;;;27.40;98.70;;;;;;5003576;28;20026;-75
2022/08/04 07:39:30;;;;;;;2.30;2.10;;;27.60;98.20;;;;;;4999107;28;20030;-76
2022/08/04 07:41:58;;;;;;;5.07;2.20;;;27.70;97.10;;;;;;4993433;28;20033;-74
2022/08/04 07:44:24;;;;;;;6.15;2.50;;;27.90;96.30;;;;;;4996770;28;20045;-74
2022/08/04 07:46:50;;;;;;;2.47;2.15;;;28.10;96.10;;;;;;5014483;28;20045;-74
2022/08/04 07:49:15;;;;;;;2.70;2.50;;;28.00;95.60;;;;;;5014412;28;20488;-75
2022/08/04 07:51:42;;;;;;;3.78;2.30;;;28.10;95.90;;;;;;5014040;28;20037;-77
2022/08/04 07:54:09;;;;;;;3.67;2.05;;;28.10;94.90;;;;;;5014122;28;20025;-74
2022/08/04 07:56:38;;;;;;;5.38;2.63;;;28.30;95.20;;;;;;5013304;28;20383;-75
2022/08/04 07:59:05;;;;;;;2.38;2.15;;;28.40;95.10;;;;;;4997358;28;20081;-74
2022/08/04 08:01:31;;;;;;;2.63;2.00;;;28.50;94.10;;;;;;5004660;28;20480;-72
2022/08/04 08:03:59;;;;;;;7.60;2.22;;;28.60;94.00;;;;;;5001064;28;20555;-72
2022/08/04 08:06:27;;;;;;;2.50;1.90;;;29.10;93.30;;;;;;5003209;28;20408;-74
2022/08/04 08:08:54;;;;;;;2.20;1.98;;;28.70;93.30;;;;;;4994348;28;20439;-74
2022/08/04 08:11:20;;;;;;;3.33;2.10;;;29.00;93.30;;;;;;4993944;28;20498;-75
2022/08/04 08:13:45;;;;;;;3.35;2.00;;;29.00;93.10;;;;;;4999212;28;20092;-75
2022/08/04 08:16:12;;;;;;;3.33;1.90;;;29.10;92.90;;;;;;5014083;28;20022;-75
2022/08/04 08:18:37;;;;;;;3.25;1.95;;;29.10;92.50;;;;;;4999884;28;20379;-76
2022/08/04 08:21:04;;;;;;;5.25;2.28;;;29.10;92.40;;;;;;5013786;28;20033;-76
2022/08/04 08:23:31;;;;;;;4.07;1.80;;;29.20;92.70;;;;;;5013919;28;20026;-76
2022/08/04 08:25:58;;;;;;;3.92;1.80;;;29.30;91.90;;;;;;5013847;28;20049;-76
2022/08/04 08:28:24;;;;;;;2.85;2.20;;;29.50;92.10;;;;;;5014103;28;20041;-75
2022/08/04 08:30:50;;;;;;;2.75;1.88;;;29.60;91.30;;;;;;5001136;28;20392;-75
2022/08/04 08:33:16;;;;;;;2.55;1.80;;;29.50;91.50;;;;;;4992736;28;20022;-76
2022/08/04 08:36:03;;;;;;;2.85;1.80;;;29.60;91.20;;;;;;4993901;28;20036;-76
2022/08/04 08:38:38;;;;;;;4.63;2.08;;;29.70;90.80;;;;;;4982550;28;20425;-76
2022/08/04 08:41:34;;;;;;;3.83;1.85;;;30.00;90.50;;;;;;4992276;28;20085;-75
2022/08/04 08:44:27;;;;;;;5.68;2.13;;;30.00;91.50;;;;;;4994174;28;20018;-76
2022/08/04 08:47:14;;;;;;;3.53;2.13;;;30.20;91.00;;;;;;5011999;28;20029;-76
2022/08/04 08:49:46;;;;;;;2.65;1.85;;;30.20;90.50;;;;;;4981398;28;20396;-75
2022/08/04 08:52:26;;;;;;;5.43;2.00;;;30.20;90.90;;;;;;4994761;28;20027;-75
2022/08/04 08:55:19;;;;;;;2.38;2.00;;;30.40;90.70;;;;;;5011878;28;20140;-75
2022/08/04 08:58:06;;;;;;;3.33;1.80;;;30.50;90.70;;;;;;4981390;28;20476;-76
2022/08/04 09:00:45;;;;;;;3.85;1.90;;;30.60;90.60;;;;;;4993138;28;20472;-77
2022/08/04 09:03:40;;;;;;;2.72;1.85;;;30.70;90.40;;;;;;5004490;28;20021;-75
2022/08/04 09:06:42;;;;;;;2.53;2.00;;;31.00;90.20;;;;;;5003164;28;20019;-75
2022/08/04 09:09:38;;;;;;;2.97;2.65;;;30.90;90.50;;;;;;4981686;28;20099;-75
2022/08/04 09:12:28;;;;;;;2.60;2.00;;;31.00;90.50;;;;;;4998411;28;20038;-75
2022/08/04 09:15:12;;;;;;;3.83;2.40;;;31.00;90.60;;;;;;5012590;28;20048;-76
2022/08/04 09:17:43;;;;;;;1.92;1.83;;;31.00;89.90;;;;;;5012769;28;20384;-75
2022/08/04 09:20:27;;;;;;;3.47;1.98;;;31.40;90.30;;;;;;5012672;28;20025;-76
2022/08/04 09:22:59;;;;;;;2.58;1.85;;;31.50;90.40;;;;;;5012684;28;20022;-75
2022/08/04 09:25:33;;;;;;;4.28;2.00;;;31.50;90.10;;;;;;5011256;28;20037;-75
2022/08/04 09:28:04;;;;;;;3.28;1.90;;;31.80;90.00;;;;;;5009507;28;20516;-76
2022/08/04 09:30:56;;;;;;;2.53;2.03;;;31.40;89.30;;;;;;4992717;28;20049;-76
2022/08/04 09:33:28;;;;;;;2.45;2.17;;;31.40;90.30;;;;;;4992906;28;20639;-75
2022/08/04 09:35:57;;;;;;;2.50;2.30;;;31.80;90.00;;;;;;4992674;28;20125;-75
2022/08/04 09:38:34;;;;;;;2.95;2.00;;;31.50;90.30;;;;;;5012445;28;20025;-75
2022/08/04 09:41:15;;;;;;;3.63;1.85;;;31.60;90.20;;;;;;4996567;28;20476;-76
2022/08/04 09:44:13;;;;;;;3.47;2.33;;;31.90;88.60;;;;;;4991433;28;20026;-75
2022/08/04 09:46:45;;;;;;;2.55;1.80;;;32.10;88.00;;;;;;4981947;28;20022;-75
2022/08/04 09:49:20;;;;;;;2.35;2.15;;;31.90;89.40;;;;;;4992665;28;20480;-75
2022/08/04 09:51:52;;;;;;;3.00;1.88;;;32.10;88.20;;;;;;4992298;28;20037;-75
2022/08/04 09:55:06;;;;;;;3.65;2.30;;;32.10;88.80;;;;;;4992587;28;20026;-75
2022/08/04 09:58:21;;;;;;;4.25;2.20;;;32.30;88.10;;;;;;4994900;28;20034;-75
2022/08/04 10:00:50;;;;;;;8.65;2.85;;;32.30;89.00;;;;;;4961635;28;20042;-75
2022/08/04 10:03:17;;;;;;;3.75;2.00;;;32.50;87.70;;;;;;4992403;28;20019;-75
2022/08/04 10:06:19;;;;;;;3.13;2.30;;;32.50;87.40;;;;;;4986971;28;20070;-75
2022/08/04 10:08:55;;;;;;;2.05;1.85;;;32.50;87.70;;;;;;4990987;28;20113;-76
2022/08/04 10:11:47;;;;;;;3.50;1.98;;;32.40;87.40;;;;;;4984464;28;20066;-75
2022/08/04 10:14:49;;;;;;;2.55;2.30;;;32.60;86.90;;;;;;4997043;28;20101;-76
2022/08/04 10:17:33;;;;;;;3.90;2.60;;;32.90;87.90;;;;;;4990308;28;20018;-76
2022/08/04 10:20:31;;;;;;;3.53;2.75;;;32.60;86.90;;;;;;4995713;28;20080;-75
2022/08/04 10:23:11;;;;;;;2.38;2.17;;;32.40;86.40;;;;;;4991278;28;20030;-76
2022/08/04 10:26:04;;;;;;;2.50;2.30;;;32.50;87.60;;;;;;4998676;28;20468;-76
2022/08/04 10:28:34;;;;;;;3.15;2.40;;;32.80;86.30;;;;;;5017618;28;20041;-75
2022/08/04 10:31:07;;;;;;;3.25;2.15;;;32.70;85.80;;;;;;5004903;28;20022;-75
2022/08/04 10:33:53;;;;;;;2.80;2.45;;;33.00;85.60;;;;;;4995888;28;20026;-76
2022/08/04 10:36:22;;;;;;;2.45;2.25;;;33.20;86.20;;;;;;4995981;28;20074;-76
2022/08/04 10:39:02;;;;;;;3.80;2.20;;;33.20;85.70;;;;;;5009262;28;20733;-74
2022/08/04 10:41:48;;;;;;;4.00;2.35;;;33.40;85.90;;;;;;4998943;28;20034;-76
2022/08/04 10:44:27;;;;;;;3.88;2.13;;;33.60;85.70;;;;;;4998677;28;20030;-75
2022/08/04 10:47:32;;;;;;;5.03;2.25;;;33.60;83.00;;;;;;4996639;28;20041;-75
2022/08/04 10:50:02;;;;;;;2.38;2.05;;;33.50;83.90;;;;;;4990604;28;20030;-76
2022/08/04 10:52:43;;;;;;;2.55;2.13;;;33.20;82.70;;;;;;4997703;28;20042;-75
2022/08/04 10:55:09;;;;;;;2.10;1.90;;;33.70;83.00;;;;;;4998236;28;20488;-75
2022/08/04 10:57:47;;;;;;;3.58;2.20;;;33.60;82.80;;;;;;4994244;28;20065;-75
2022/08/04 11:00:18;;;;;;;5.55;2.25;;;33.70;82.70;;;;;;5005542;28;20041;-74
2022/08/04 11:03:00;;;;;;;2.30;2.10;;;33.60;83.70;;;;;;4986004;28;20053;-74
2022/08/04 11:05:50;;;;;;;2.30;2.10;;;33.80;82.80;;;;;;5000076;28;20045;-74
2022/08/04 11:08:36;;;;;;;2.40;2.20;;;33.80;82.10;;;;;;4991344;28;20049;-74
2022/08/04 11:11:07;;;;;;;2.80;2.25;;;33.90;81.70;;;;;;4994460;28;20495;-74
2022/08/04 11:13:41;;;;;;;2.78;2.10;;;34.20;81.30;;;;;;5004557;28;20026;-74
2022/08/04 11:16:16;;;;;;;6.28;2.10;;;34.40;80.80;;;;;;5004560;28;20029;-74
2022/08/04 11:19:03;;;;;;;3.30;2.10;;;34.60;80.80;;;;;;5016391;28;20026;-74
2022/08/04 11:21:33;;;;;;;2.55;2.15;;;34.60;80.00;;;;;;5003028;28;20033;-74
2022/08/04 11:24:12;;;;;;;3.72;2.15;;;34.40;79.50;;;;;;5006966;28;20034;-74
2022/08/04 11:27:05;;;;;;;3.75;2.05;;;34.10;79.40;;;;;;5004567;28;20034;-74
2022/08/04 11:29:41;;;;;;;3.67;2.40;;;34.00;80.80;;;;;;4997957;28;20034;-74
2022/08/04 11:32:09;;;;;;;;;;;34.50;80.30;;;;;;5006722;28;20049;-74
2022/08/04 11:34:37;;;;;;;3.97;2.10;;;34.80;80.70;;;;;;5005614;28;19917;-74
2022/08/04 11:37:10;;;;;;;3.28;2.38;;;34.50;80.30;;;;;;5004796;28;20118;-75
2022/08/04 11:39:42;;;;;;;2.33;2.13;;;35.00;79.10;;;;;;5001443;28;20026;-74
2022/08/04 11:42:28;;;;;;;3.72;2.22;;;34.60;79.20;;;;;;5003099;28;20061;-75
2022/08/04 11:45:05;;;;;;;3.95;2.25;;;34.10;80.50;;;;;;5001897;28;20104;-74
2022/08/04 11:47:57;;;;;;;5.03;2.67;;;34.90;79.70;;;;;;5001173;28;20117;-76
2022/08/04 11:50:37;;;;;;;2.13;1.92;;;35.30;78.70;;;;;;5014651;28;20021;-74
2022/08/04 11:53:04;;;;;;;2.40;2.20;;;35.70;78.90;;;;;;4990666;28;20487;-74
2022/08/04 11:55:31;;;;;;;2.88;2.00;;;35.30;78.00;;;;;;5007125;28;20138;-76
2022/08/04 11:57:56;;;;;;;2.63;1.98;;;35.40;78.40;;;;;;4999397;28;20077;-74
2022/08/04 12:00:26;;;;;;;2.38;2.10;;;35.20;78.10;;;;;;5007606;28;20434;-74
2022/08/04 12:03:07;;;;;;;2.78;2.20;;;35.50;77.90;;;;;;5002102;28;20030;-74
2022/08/04 12:05:42;;;;;;;2.97;2.20;;;35.60;76.50;;;;;;5001206;28;20029;-74
2022/08/04 12:08:23;;;;;;;;;;;35.50;77.10;;;;;;5002961;28;20026;-74
2022/08/04 12:11:14;;;;;;;2.30;2.10;;;35.40;77.30;;;;;;4982109;28;20646;-74
2022/08/04 12:14:10;;;;;;;2.53;2.33;;;34.90;77.10;;;;;;4993031;28;20026;-74
2022/08/04 12:16:54;;;;;;;2.20;2.00;;;35.20;75.70;;;;;;4989031;28;20027;-76
2022/08/04 12:19:29;;;;;;;4.65;2.20;;;34.80;75.50;;;;;;4994226;28;20022;-76
2022/08/04 12:21:58;;;;;;;2.67;2.38;;;34.90;75.70;;;;;;4992592;28;20030;-76
2022/08/04 12:24:34;;;;;;;2.97;2.33;;;35.30;76.10;;;;;;4994020;28;20035;-76
2022/08/04 12:27:22;;;;;;;2.10;2.00;;;35.90;76.40;;;;;;4993395;28;20026;-76
2022/08/04 12:29:50;;;;;;;2.47;2.28;;;36.50;75.80;;;;;;4996800;28;20018;-76
2022/08/04 12:32:31;;;;;;;2.58;2.38;;;35.90;75.40;;;;;;5003187;28;20026;-76
2022/08/04 12:35:13;;;;;;;4.57;2.17;;;35.10;76.60;;;;;;5006752;28;20057;-77
2022/08/04 12:38:06;;;;;;;3.30;2.13;;;36.20;75.40;;;;;;4990232;28;20034;-76
2022/08/04 12:40:47;;;;;;;3.20;2.05;;;36.30;74.60;;;;;;4987835;28;20042;-76
2022/08/04 12:43:28;;;;;;;2.50;2.08;;;37.20;74.60;;;;;;4991106;28;20022;-77
2022/08/04 12:46:02;;;;;;;5.22;2.45;;;36.90;74.20;;;;;;5010345;28;20377;-74
2022/08/04 12:48:29;;;;;;;3.15;2.42;;;36.70;74.60;;;;;;5013926;28;20460;-76
2022/08/04 12:50:57;;;;;;;4.93;2.22;;;37.30;73.50;;;;;;5006675;28;20038;-76
2022/08/04 12:53:27;;;;;;;3.90;2.30;;;37.20;72.50;;;;;;4992206;28;20077;-74
2022/08/04 12:55:53;;;;;;;3.38;2.40;;;37.60;73.50;;;;;;5005342;28;20033;-74
2022/08/04 12:58:23;;;;;;;4.18;2.50;;;37.20;72.90;;;;;;5005166;28;20053;-74
2022/08/04 13:00:57;;;;;;;2.47;2.28;;;36.20;73.50;;;;;;5000157;28;20404;-74
2022/08/04 13:03:36;;;;;;;6.13;2.40;;;36.80;73.30;;;;;;4998670;28;20121;-74
2022/08/04 13:06:03;;;;;;;2.53;2.33;;;37.40;74.20;;;;;;4986615;28;20499;-74
2022/08/04 13:08:35;;;;;;;3.80;2.85;;;38.10;72.10;;;;;;5006346;28;20034;-74
2022/08/04 13:11:03;;;;;;;3.67;2.40;;;38.30;71.90;;;;;;4993165;28;20022;-74
2022/08/04 13:13:33;;;;;;;2.95;2.30;;;38.00;71.70;;;;;;4996278;28;20073;-74
2022/08/04 13:16:10;;;;;;;2.58;2.30;;;37.40;71.50;;;;;;5002557;28;20060;-74
2022/08/04 13:18:41;;;;;;;3.55;2.58;;;36.50;72.50;;;;;;4993478;28;20484;-74
2022/08/04 13:21:13;;;;;;;2.42;2.20;;;38.00;72.30;;;;;;4993029;28;20034;-74
2022/08/04 13:23:41;;;;;;;4.32;2.50;;;38.60;71.50;;;;;;4987043;28;20026;-74
2022/08/04 13:26:08;;;;;;;4.57;2.67;;;38.90;70.70;;;;;;4998979;28;20027;-75
2022/08/04 13:28:39;;;;;;;4.30;2.30;;;39.30;69.70;;;;;;4992215;28;20031;-74
2022/08/04 13:31:06;;;;;;;5.75;2.50;;;39.70;69.20;;;;;;4992660;28;20057;-74
2022/08/04 13:33:36;;;;;;;6.57;2.80;;;39.50;69.60;;;;;;4996082;28;20028;-74
2022/08/04 13:36:04;;;;;;;2.67;2.47;;;38.90;70.00;;;;;;4983754;28;20030;-74
2022/08/04 13:38:32;;;;;;;2.22;2.03;;;39.70;68.80;;;;;;4999358;28;20025;-74
2022/08/04 13:41:01;;;;;;;2.35;2.20;;;39.60;69.90;;;;;;4997299;28;20025;-74